Date,TemperatureHighF,TemperatureAvgF,TemperatureLowF,DewpointHighF,DewpointAvgF,DewpointLowF,HumidityHigh,HumidityAvg,HumidityLow,PressureMaxIn,PressureMinIn,WindSpeedMaxMPH,WindSpeedAvgMPH,GustSpeedMaxMPH,PrecipitationSumIn
2013-1-1,32,30,28,29,28,26,90,89,89,30.05,30.00,4,1,5,0.00
2013-4-9,55,52,51,41,40,38,69,61,54,29.87,29.75,2,1,7,0.00
2013-4-10,54,50,46,47,41,37,86,70,53,29.82,29.48,9,2,14,0.02
2013-4-11,53,46,40,41,36,32,87,69,49,29.87,29.76,7,1,13,0.10
2013-4-12,48,41,37,39,36,33,86,81,63,29.76,29.25,9,1,11,0.15
2013-4-13,48,42,37,41,36,28,86,78,61,29.56,29.32,9,1,12,0.14
2013-4-14,53,44,38,39,35,30,88,72,46,29.58,29.49,6,1,11,0.09
2013-4-15,54,44,37,39,36,34,88,74,51,29.75,29.52,8,1,12,0.03
2013-4-16,54,44,32,40,34,29,90,70,38,29.96,29.75,8,1,10,0.06
2013-4-17,58,47,35,40,35,31,89,66,37,30.02,29.96,7,1,10,0.00
2013-4-18,51,46,43,44,40,36,87,78,62,30.02,29.78,4,1,11,0.14
2013-4-19,54,49,47,49,46,43,88,86,81,29.78,29.63,6,1,8,0.22
2013-4-20,54,48,46,46,43,41,88,83,68,29.85,29.76,4,1,10,0.15
2013-4-21,52,46,41,42,39,35,88,77,55,29.94,29.80,7,2,13,0.17
2013-4-22,58,46,32,38,32,26,89,63,32,30.10,29.94,6,1,12,0.00
2013-4-23,59,48,34,37,33,26,87,59,31,30.00,29.83,10,1,12,0.00
2013-4-24,66,52,37,42,36,30,88,56,28,29.89,29.65,6,1,11,0.00
2013-4-25,69,55,40,44,38,35,83,56,31,29.72,29.62,7,1,9,0.00
2013-4-26,63,54,43,48,43,39,88,68,49,29.83,29.72,6,1,9,0.00
2013-4-27,55,52,49,46,41,35,88,67,49,29.80,29.72,3,1,8,0.11
2013-4-28,56,50,45,46,42,37,88,74,58,29.79,29.50,5,1,6,0.05
2013-4-29,54,47,42,43,32,22,86,56,30,29.73,29.49,12,3,19,0.06
2013-4-30,53,45,36,37,30,19,86,58,26,30.02,29.73,7,1,14,0.05
2013-5-1,61,48,32,36,32,28,88,56,33,30.15,30.02,8,1,11,0.00
2013-5-2,65,52,41,43,37,33,84,57,35,30.12,29.95,10,2,14,0.00
2013-5-3,67,55,40,46,41,36,88,61,36,29.97,29.81,7,2,15,0.00
2013-5-4,75,60,44,48,42,36,88,55,26,29.82,29.59,9,1,13,0.00
2013-5-5,79,63,47,50,45,40,83,53,33,29.59,29.37,6,1,12,0.00
2013-5-6,80,65,50,51,46,40,79,51,28,29.44,29.35,6,1,11,0.00
2013-5-7,68,58,50,51,48,43,85,69,50,29.58,29.41,7,1,10,0.00
2013-5-8,65,55,49,50,48,45,88,75,55,29.73,29.58,4,1,6,0.00
2013-5-9,66,54,47,52,47,44,89,77,50,29.80,29.71,6,1,10,0.00
2013-5-10,73,59,46,53,48,42,89,68,37,29.78,29.70,7,1,9,0.01
2013-5-11,82,64,52,55,49,43,86,60,33,29.76,29.58,5,1,7,0.00
2013-5-12,72,63,58,55,52,48,87,70,46,29.67,29.58,14,4,15,0.03
2013-5-13,64,56,47,56,48,39,84,74,49,29.76,29.52,23,16,24,0.09
2013-5-14,63,54,46,42,39,34,78,58,34,29.80,29.70,25,18,26,0.00
2013-5-15,65,54,44,48,42,39,86,68,38,29.70,29.60,28,19,29,0.03
2013-5-16,66,58,51,51,48,47,87,72,52,29.60,29.45,23,16,23,0.01
2013-5-17,61,56,52,50,47,45,86,72,57,29.63,29.52,20,16,21,0.02
2013-5-18,65,56,51,46,44,40,79,63,45,29.85,29.63,21,17,22,0.00
2013-5-19,64,55,50,49,46,43,85,71,48,29.98,29.85,23,18,25,0.01
2013-5-20,66,54,44,48,44,41,88,71,48,29.93,29.49,26,19,27,0.00
2013-5-21,53,49,46,46,44,42,87,81,68,29.49,29.36,28,24,29,0.43
2013-5-22,52,48,44,45,42,39,88,82,71,29.52,29.42,28,24,29,0.08
2013-5-23,60,50,44,46,42,40,89,76,49,29.59,29.50,27,22,28,0.01
2013-5-24,62,53,43,45,42,40,88,68,45,29.62,29.55,28,19,29,0.00
2013-5-25,64,55,49,46,44,40,85,66,44,29.62,29.55,22,18,23,0.01
2013-5-26,64,56,49,53,48,44,85,75,55,29.57,29.53,22,17,24,0.04
2013-5-27,62,56,50,52,49,46,87,78,62,29.54,29.30,21,16,21,0.04
2013-5-28,65,57,51,49,47,44,85,70,48,29.46,29.35,20,16,22,0.00
2013-5-29,55,51,49,48,46,45,88,82,73,29.54,29.26,24,20,25,0.23
2013-5-30,64,54,48,48,44,42,88,71,46,29.82,29.54,23,18,24,0.02
2013-5-31,65,56,50,47,44,38,83,64,39,29.92,29.82,22,17,22,0.00
2013-6-1,70,59,49,48,45,40,83,62,36,29.83,29.64,22,15,23,0.00
2013-6-2,68,59,52,49,46,44,84,64,43,29.68,29.63,22,15,25,0.05
2013-6-3,70,59,48,52,48,44,87,69,45,29.70,29.65,22,15,23,0.00
2013-6-4,76,63,49,53,49,43,87,62,42,29.72,29.62,21,12,22,0.00
2013-6-5,73,62,51,54,50,40,84,64,49,29.69,29.63,20,12,21,0.00